Time;durP1;ratioP1;P1;durP2;ratioP2;P2;SDS_P1;SDS_P2;PMS_P1;PMS_P2;Temp;Humidity;BMP_temperature;BMP_pressure;BME280_temperature;BME280_humidity;BME280_pressure;Samples;Min_cycle;Max_cycle;Signal;HPM_P1;HPM_P2
2021/08/06 00:00:41;;;;;;;9.73;8.93;;;21.50;70.20;;;;;;10459355;28;20029;-50
2021/08/06 00:05:42;;;;;;;8.85;8.05;;;21.50;70.20;;;;;;10459156;28;20025;-48
2021/08/06 00:10:43;;;;;;;8.90;8.20;;;21.50;70.20;;;;;;10459020;28;20111;-50
2021/08/06 00:15:43;;;;;;;9.68;8.88;;;21.50;70.20;;;;;;10440905;28;20469;-49
2021/08/06 00:20:44;;;;;;;9.35;8.55;;;21.50;70.20;;;;;;10458214;28;20112;-51
2021/08/06 00:25:45;;;;;;;9.20;8.40;;;21.50;70.20;;;;;;10449861;28;20039;-48
2021/08/06 00:30:46;;;;;;;8.80;8.00;;;21.50;70.20;;;;;;10459323;28;20032;-53
2021/08/06 00:35:47;;;;;;;8.48;7.78;;;21.50;70.20;;;;;;10465138;28;20032;-51
2021/08/06 00:40:47;;;;;;;9.80;9.00;;;21.50;70.20;;;;;;10457487;28;20037;-48
2021/08/06 00:45:49;;;;;;;8.27;7.47;;;21.50;70.20;;;;;;10456918;28;20555;-50
2021/08/06 00:50:50;;;;;;;8.95;8.15;;;21.50;70.20;;;;;;10457492;28;20466;-50
2021/08/06 00:55:51;;;;;;;8.63;7.90;;;21.50;70.20;;;;;;10457552;28;20037;-49
2021/08/06 01:00:51;;;;;;;8.52;7.72;;;21.50;70.20;;;;;;10456693;28;20024;-50
2021/08/06 01:06:30;;;;;;;8.25;7.53;;;21.50;70.20;;;;;;10456733;28;20116;-51
2021/08/06 01:11:36;;;;;;;7.72;6.95;;;21.50;70.00;;;;;;10440033;28;20112;-49
2021/08/06 01:16:37;;;;;;;7.68;7.00;;;21.50;70.20;;;;;;10438674;28;20033;-49
2021/08/06 01:21:44;;;;;;;7.82;7.13;;;21.40;70.10;;;;;;10441410;28;20037;-50
2021/08/06 01:26:45;;;;;;;7.68;6.97;;;21.50;70.20;;;;;;10423990;28;20029;-53
2021/08/06 01:31:48;;;;;;;7.18;6.57;;;21.50;70.30;;;;;;10446649;28;20094;-50
2021/08/06 01:36:49;;;;;;;7.35;6.65;;;21.50;70.30;;;;;;10456054;28;20029;-50
2021/08/06 01:42:12;;;;;;;7.10;6.40;;;21.50;70.30;;;;;;10455675;28;20029;-52
2021/08/06 01:47:33;;;;;;;6.82;6.22;;;21.40;70.20;;;;;;10439099;28;20493;-50
2021/08/06 01:52:54;;;;;;;7.88;7.18;;;21.50;70.30;;;;;;10438351;28;20033;-49
2021/08/06 01:57:57;;;;;;;6.75;6.15;;;21.40;70.20;;;;;;10438018;28;20426;-49
2021/08/06 02:02:58;;;;;;;7.50;6.75;;;21.40;70.30;;;;;;10436784;28;20382;-50
2021/08/06 02:08:00;;;;;;;7.18;6.45;;;21.50;70.40;;;;;;10437015;28;20029;-49
2021/08/06 02:13:02;;;;;;;7.13;6.53;;;21.40;70.30;;;;;;10437134;28;20044;-51
2021/08/06 02:18:03;;;;;;;7.25;6.65;;;21.40;70.30;;;;;;10454350;28;20029;-50
2021/08/06 02:23:06;;;;;;;6.60;6.05;;;21.40;70.30;;;;;;10437040;28;20021;-48
2021/08/06 02:28:07;;;;;;;7.18;6.00;;;21.40;70.20;;;;;;10423509;28;20048;-51
2021/08/06 02:33:08;;;;;;;6.35;5.78;;;21.40;70.30;;;;;;10445004;28;20036;-52
2021/08/06 02:38:09;;;;;;;6.28;5.60;;;21.50;70.60;;;;;;10430296;28;20083;-49
2021/08/06 02:43:10;;;;;;;6.15;5.65;;;21.40;70.60;;;;;;10436514;28;20041;-51
2021/08/06 02:48:10;;;;;;;6.38;5.78;;;21.40;70.50;;;;;;10453891;28;20044;-50
2021/08/06 02:53:11;;;;;;;6.03;5.43;;;21.40;70.40;;;;;;10453866;28;20069;-51
2021/08/06 02:58:12;;;;;;;6.15;5.60;;;21.40;70.50;;;;;;10453374;28;20104;-48
2021/08/06 03:03:13;;;;;;;5.70;5.20;;;21.40;70.40;;;;;;10439199;28;20069;-49
2021/08/06 03:08:13;;;;;;;5.50;4.88;;;21.40;70.50;;;;;;10436645;28;20109;-52
2021/08/06 03:13:14;;;;;;;6.68;5.07;;;21.40;70.50;;;;;;10453255;28;20033;-51
2021/08/06 03:18:15;;;;;;;6.93;6.22;;;21.40;70.40;;;;;;10460072;28;20064;-48
2021/08/06 03:23:15;;;;;;;5.80;5.22;;;21.40;70.40;;;;;;10460715;28;20040;-53
2021/08/06 03:28:16;;;;;;;5.25;4.75;;;21.40;70.60;;;;;;10460335;28;20031;-50
2021/08/06 03:33:17;;;;;;;6.38;5.43;;;21.40;70.50;;;;;;10451361;28;20461;-52
2021/08/06 03:38:21;;;;;;;5.30;4.80;;;21.40;70.40;;;;;;10460191;28;20171;-49
2021/08/06 03:43:22;;;;;;;5.72;5.15;;;21.40;70.40;;;;;;10460435;28;20064;-50
2021/08/06 03:48:23;;;;;;;5.10;4.60;;;21.40;70.60;;;;;;10459442;28;20374;-49
2021/08/06 03:53:23;;;;;;;5.50;5.00;;;21.40;70.60;;;;;;10459712;28;20060;-49
2021/08/06 03:58:24;;;;;;;5.13;4.35;;;21.40;70.50;;;;;;10459482;28;20025;-50
2021/08/06 04:03:25;;;;;;;5.30;4.80;;;21.40;70.50;;;;;;10457751;28;20108;-49
2021/08/06 04:08:25;;;;;;;5.80;4.57;;;21.40;70.60;;;;;;10450910;28;20477;-51
2021/08/06 04:13:26;;;;;;;4.68;4.28;;;21.40;70.70;;;;;;10455084;28;20116;-49
2021/08/06 04:18:27;;;;;;;5.45;4.93;;;21.40;70.60;;;;;;10459357;28;20029;-49
2021/08/06 04:23:27;;;;;;;5.05;4.55;;;21.40;70.60;;;;;;10458950;28;20075;-52
2021/08/06 04:28:28;;;;;;;5.32;4.53;;;21.40;70.50;;;;;;10443810;28;20538;-50
2021/08/06 04:33:29;;;;;;;5.10;4.60;;;21.30;70.40;;;;;;10464418;28;20076;-49
2021/08/06 04:38:29;;;;;;;4.47;3.97;;;21.40;70.60;;;;;;10457524;28;20111;-49
2021/08/06 04:43:30;;;;;;;5.05;4.55;;;21.40;70.60;;;;;;10433981;28;20676;-49
2021/08/06 04:48:31;;;;;;;5.03;4.22;;;21.40;70.70;;;;;;10458417;28;20053;-50
2021/08/06 04:53:34;;;;;;;6.45;4.25;;;21.40;70.80;;;;;;10452495;28;20051;-57
2021/08/06 04:58:35;;;;;;;5.00;4.50;;;21.40;70.60;;;;;;10454296;28;20393;-53
2021/08/06 05:03:36;;;;;;;4.53;3.78;;;21.40;70.90;;;;;;10409543;28;20040;-50
2021/08/06 05:08:38;;;;;;;5.35;3.90;;;21.40;70.70;;;;;;10438572;28;20032;-47
2021/08/06 05:13:39;;;;;;;5.53;4.10;;;21.40;71.00;;;;;;10456883;28;20048;-46
2021/08/06 05:18:40;;;;;;;5.78;3.65;;;21.40;70.70;;;;;;10441328;28;20040;-51
2021/08/06 05:23:41;;;;;;;4.72;4.07;;;21.40;70.90;;;;;;10454659;28;20048;-53
2021/08/06 05:28:41;;;;;;;6.80;4.10;;;21.40;71.00;;;;;;10443402;28;20428;-52
2021/08/06 05:33:42;;;;;;;6.38;4.00;;;21.40;71.20;;;;;;10462039;28;20037;-53
2021/08/06 05:38:43;;;;;;;3.90;3.45;;;21.40;71.30;;;;;;10435569;28;20113;-53
2021/08/06 05:43:44;;;;;;;4.50;3.50;;;21.40;71.20;;;;;;10454858;28;20056;-53
2021/08/06 05:48:44;;;;;;;6.03;3.55;;;21.30;71.20;;;;;;10455707;28;20075;-53
2021/08/06 05:53:45;;;;;;;5.43;3.83;;;21.30;71.20;;;;;;10455620;28;20041;-50
2021/08/06 05:58:46;;;;;;;5.18;3.63;;;21.40;71.20;;;;;;10455780;28;20489;-53
2021/08/06 06:03:46;;;;;;;4.97;3.80;;;21.30;71.20;;;;;;10455559;28;20053;-54
2021/08/06 06:08:47;;;;;;;3.83;3.15;;;21.30;71.10;;;;;;10455408;28;20112;-52
2021/08/06 06:13:48;;;;;;;4.18;3.20;;;21.30;71.10;;;;;;10455210;28;20389;-52
2021/08/06 06:18:48;;;;;;;4.88;3.08;;;21.30;71.70;;;;;;10455147;28;20032;-50
2021/08/06 06:23:49;;;;;;;5.15;3.25;;;21.30;71.30;;;;;;10455097;28;20057;-52
2021/08/06 06:28:50;;;;;;;4.55;3.47;;;21.30;71.20;;;;;;10455073;28;20102;-53
2021/08/06 06:33:52;;;;;;;6.47;3.40;;;21.30;71.30;;;;;;10445611;28;20029;-53
2021/08/06 06:38:53;;;;;;;4.70;2.53;;;21.30;71.30;;;;;;10454816;28;20025;-54
2021/08/06 06:43:53;;;;;;;4.80;3.13;;;21.30;71.40;;;;;;10454874;28;20040;-53
2021/08/06 06:48:54;;;;;;;4.38;3.00;;;21.30;71.50;;;;;;10454575;28;20512;-53
2021/08/06 06:53:55;;;;;;;3.25;2.95;;;21.30;71.40;;;;;;10462561;28;20156;-52
2021/08/06 06:58:55;;;;;;;3.58;2.53;;;21.30;71.30;;;;;;10462465;28;20108;-53
2021/08/06 07:03:56;;;;;;;3.22;2.92;;;21.40;71.60;;;;;;10462399;28;20052;-52
2021/08/06 07:08:57;;;;;;;3.90;2.83;;;21.30;71.40;;;;;;10462175;28;20517;-53
2021/08/06 07:13:57;;;;;;;4.85;3.17;;;21.30;71.30;;;;;;10461509;28;20064;-52
2021/08/06 07:18:58;;;;;;;3.13;2.55;;;21.30;71.10;;;;;;10461763;28;20056;-51
2021/08/06 07:23:59;;;;;;;3.30;2.50;;;21.30;71.00;;;;;;10461461;28;20072;-52
2021/08/06 07:28:59;;;;;;;3.25;2.90;;;21.30;71.20;;;;;;10461205;28;20151;-52
2021/08/06 07:34:00;;;;;;;3.78;2.75;;;21.30;71.20;;;;;;10451308;28;20084;-52
2021/08/06 07:39:00;;;;;;;3.45;3.13;;;21.30;71.30;;;;;;10442925;28;20032;-53
2021/08/06 07:44:01;;;;;;;4.90;3.05;;;21.30;71.20;;;;;;10443072;28;20029;-53
2021/08/06 07:49:02;;;;;;;3.53;2.75;;;21.30;71.10;;;;;;10460191;28;20045;-54
2021/08/06 07:54:03;;;;;;;4.00;2.70;;;21.30;71.00;;;;;;10460178;28;20492;-54
2021/08/06 07:59:04;;;;;;;3.20;2.70;;;21.30;71.10;;;;;;10460194;28;20086;-53
2021/08/06 08:04:05;;;;;;;4.22;2.50;;;21.30;71.20;;;;;;10458639;28;20541;-53
2021/08/06 08:09:06;;;;;;;3.40;2.38;;;21.40;71.20;;;;;;10459755;28;20068;-52
2021/08/06 08:14:06;;;;;;;3.90;2.75;;;21.30;70.90;;;;;;10441543;28;20115;-52
2021/08/06 08:19:07;;;;;;;3.63;3.03;;;21.30;70.90;;;;;;10459451;28;20095;-52
2021/08/06 08:24:08;;;;;;;4.25;2.90;;;21.30;70.80;;;;;;10459197;28;20032;-54
2021/08/06 08:29:09;;;;;;;3.67;2.75;;;21.40;70.90;;;;;;10459072;28;20021;-54
2021/08/06 08:34:09;;;;;;;4.15;3.08;;;21.40;70.90;;;;;;10466935;28;20033;-50
2021/08/06 08:39:10;;;;;;;3.55;3.03;;;21.40;71.20;;;;;;10458842;28;20071;-53
2021/08/06 08:44:11;;;;;;;4.22;3.33;;;21.40;71.20;;;;;;10458520;28;20512;-53
2021/08/06 08:49:13;;;;;;;3.65;3.28;;;21.40;71.20;;;;;;10457874;28;20055;-52
2021/08/06 08:54:14;;;;;;;4.53;3.90;;;21.40;71.10;;;;;;10456617;28;20061;-54
2021/08/06 08:59:15;;;;;;;3.25;2.95;;;21.40;71.30;;;;;;10457459;28;20108;-52
2021/08/06 09:04:28;;;;;;;3.75;2.80;;;21.40;71.30;;;;;;10457646;28;20389;-53
2021/08/06 09:09:29;;;;;;;4.18;3.15;;;21.50;71.20;;;;;;10440967;28;20539;-54
2021/08/06 09:14:31;;;;;;;3.08;2.78;;;21.50;71.10;;;;;;10456593;28;20029;-53
2021/08/06 09:19:36;;;;;;;4.40;3.08;;;21.50;71.10;;;;;;10457075;28;20028;-54
2021/08/06 09:25:00;;;;;;;3.65;3.08;;;21.50;71.10;;;;;;10447691;28;20037;-52
2021/08/06 09:30:07;;;;;;;4.28;2.80;;;21.50;71.10;;;;;;10455797;28;20538;-53
2021/08/06 09:35:13;;;;;;;3.42;3.10;;;21.50;71.00;;;;;;10464577;28;20477;-52
2021/08/06 09:40:18;;;;;;;4.20;3.03;;;21.60;71.10;;;;;;10439484;28;20021;-52
2021/08/06 09:45:23;;;;;;;3.60;2.80;;;21.50;70.90;;;;;;10456156;28;20024;-51
2021/08/06 09:50:35;;;;;;;3.80;3.25;;;21.60;71.00;;;;;;10455712;28;20048;-50
2021/08/06 09:55:40;;;;;;;4.63;3.28;;;21.50;70.80;;;;;;10455895;28;20045;-52
2021/08/06 10:00:46;;;;;;;4.70;3.30;;;21.50;70.80;;;;;;10455960;28;20036;-52
2021/08/06 10:05:47;;;;;;;3.55;3.03;;;21.50;70.70;;;;;;10438208;28;20037;-53
2021/08/06 10:10:53;;;;;;;4.50;3.30;;;21.50;70.80;;;;;;10455678;28;20377;-50
2021/08/06 10:15:54;;;;;;;5.40;3.33;;;21.50;70.70;;;;;;10438365;28;20035;-52
2021/08/06 10:20:55;;;;;;;4.70;2.90;;;21.50;70.90;;;;;;10437494;28;20021;-51
2021/08/06 10:25:56;;;;;;;4.15;3.25;;;21.50;70.90;;;;;;10458529;28;20035;-52
2021/08/06 10:31:23;;;;;;;4.13;2.72;;;21.60;70.80;;;;;;10448532;28;20396;-53
2021/08/06 10:36:59;;;;;;;4.35;3.17;;;21.60;70.60;;;;;;10448630;28;20029;-54
2021/08/06 10:42:01;;;;;;;3.65;2.80;;;21.60;70.60;;;;;;10375885;28;20045;-53
2021/08/06 10:47:04;;;;;;;2.97;2.67;;;21.60;70.60;;;;;;10445143;28;20045;-53
2021/08/06 10:52:21;;;;;;;3.97;2.80;;;21.50;70.30;;;;;;10462432;28;20028;-53
2021/08/06 10:57:28;;;;;;;4.25;3.35;;;21.60;70.50;;;;;;10462717;28;20059;-52
2021/08/06 11:02:42;;;;;;;3.53;2.90;;;21.50;70.40;;;;;;10444320;28;20024;-53
2021/08/06 11:07:43;;;;;;;3.97;3.05;;;21.50;70.50;;;;;;10462502;28;20033;-53
2021/08/06 11:12:45;;;;;;;3.70;2.95;;;21.50;70.60;;;;;;10444093;28;20112;-52
2021/08/06 11:17:47;;;;;;;3.58;2.58;;;21.50;70.60;;;;;;10461868;28;20103;-53
2021/08/06 11:22:50;;;;;;;7.05;2.50;;;21.60;70.90;;;;;;10443973;28;20025;-53
2021/08/06 11:28:00;;;;;;;3.97;2.65;;;21.50;70.70;;;;;;10430524;28;20028;-53
2021/08/06 11:33:05;;;;;;;4.35;2.67;;;21.60;70.90;;;;;;10469349;28;20035;-54
2021/08/06 11:38:12;;;;;;;3.63;2.60;;;21.60;70.80;;;;;;10443492;28;20057;-50
2021/08/06 11:43:19;;;;;;;3.70;2.53;;;21.60;70.80;;;;;;10460996;28;20111;-54
2021/08/06 11:48:21;;;;;;;2.63;2.28;;;21.60;70.90;;;;;;10460424;28;20524;-52
2021/08/06 11:53:27;;;;;;;2.80;2.25;;;21.60;70.80;;;;;;10460142;28;20033;-53
2021/08/06 11:58:34;;;;;;;3.58;2.65;;;21.60;70.80;;;;;;10460300;28;20032;-53
2021/08/06 12:03:54;;;;;;;2.92;2.42;;;21.60;70.70;;;;;;10442982;28;20053;-53
2021/08/06 12:08:59;;;;;;;3.53;2.65;;;21.60;70.60;;;;;;10443290;28;20033;-52
2021/08/06 12:14:03;;;;;;;3.40;2.80;;;21.60;70.60;;;;;;10459686;28;20043;-54
2021/08/06 12:19:05;;;;;;;3.50;2.92;;;21.60;70.60;;;;;;10459352;28;20033;-54
2021/08/06 12:24:15;;;;;;;2.70;2.35;;;21.60;70.60;;;;;;10441581;28;20017;-53
2021/08/06 12:29:31;;;;;;;2.53;2.33;;;21.60;70.70;;;;;;10459079;28;20044;-55
2021/08/06 12:34:56;;;;;;;3.63;2.50;;;21.70;70.70;;;;;;10466956;28;20043;-54
2021/08/06 12:39:57;;;;;;;2.75;2.20;;;21.80;70.60;;;;;;10458489;28;20485;-54
2021/08/06 12:45:00;;;;;;;3.83;2.75;;;21.80;70.50;;;;;;10440406;28;20170;-52
2021/08/06 12:50:06;;;;;;;3.10;2.50;;;21.80;70.30;;;;;;10457377;28;20048;-51
2021/08/06 12:55:16;;;;;;;3.00;2.53;;;21.80;70.40;;;;;;10458378;28;20390;-51
2021/08/06 13:00:31;;;;;;;2.55;2.17;;;21.80;70.40;;;;;;10457829;28;20025;-52
2021/08/06 13:05:39;;;;;;;3.60;2.65;;;21.70;70.40;;;;;;10457930;28;20044;-53
2021/08/06 13:10:40;;;;;;;3.63;2.83;;;21.70;70.30;;;;;;10440253;28;20112;-54
2021/08/06 13:15:42;;;;;;;3.20;2.50;;;21.70;70.40;;;;;;10439465;28;20033;-53
2021/08/06 13:20:43;;;;;;;3.40;2.55;;;21.80;70.50;;;;;;10456883;28;20150;-53
2021/08/06 13:25:45;;;;;;;2.63;2.22;;;21.70;70.30;;;;;;10443369;28;20040;-54
2021/08/06 13:30:46;;;;;;;2.40;1.98;;;21.70;71.10;;;;;;10457680;28;20103;-53
2021/08/06 13:35:47;;;;;;;2.63;2.17;;;21.70;70.50;;;;;;10463861;28;20182;-52
2021/08/06 13:40:47;;;;;;;3.10;2.65;;;21.80;70.50;;;;;;10456199;28;20082;-53
2021/08/06 13:45:48;;;;;;;3.13;2.75;;;21.70;70.40;;;;;;10456104;28;20090;-53
2021/08/06 13:50:49;;;;;;;3.17;2.60;;;21.70;70.50;;;;;;10456086;28;20056;-53
2021/08/06 13:55:49;;;;;;;3.33;2.45;;;21.70;70.30;;;;;;10456164;28;20112;-54
2021/08/06 14:00:50;;;;;;;3.28;2.28;;;21.70;70.40;;;;;;10454875;28;20024;-53
2021/08/06 14:05:51;;;;;;;3.28;2.40;;;21.70;70.40;;;;;;10455948;28;20571;-54
2021/08/06 14:10:51;;;;;;;2.75;2.20;;;21.70;70.50;;;;;;10437720;28;20497;-53
2021/08/06 14:15:52;;;;;;;2.47;2.05;;;21.70;70.50;;;;;;10455172;28;20033;-54
2021/08/06 14:20:53;;;;;;;2.58;2.10;;;21.70;70.60;;;;;;10455466;28;20052;-54
2021/08/06 14:25:54;;;;;;;2.58;2.38;;;21.70;70.60;;;;;;10455492;28;20063;-51
2021/08/06 14:30:55;;;;;;;2.90;2.33;;;21.70;70.60;;;;;;10457360;28;20064;-53
2021/08/06 14:35:55;;;;;;;2.72;2.40;;;21.70;70.60;;;;;;10460884;28;20029;-53
2021/08/06 14:40:56;;;;;;;2.45;2.05;;;21.70;70.60;;;;;;10454983;28;20103;-53
2021/08/06 14:45:57;;;;;;;3.60;2.33;;;21.70;70.70;;;;;;10454601;28;20147;-53
2021/08/06 14:50:58;;;;;;;3.08;2.33;;;21.70;70.70;;;;;;10454573;28;20029;-54
2021/08/06 14:56:00;;;;;;;2.40;2.13;;;21.70;70.70;;;;;;10408590;28;20027;-53
2021/08/06 15:01:00;;;;;;;2.22;1.75;;;21.80;70.70;;;;;;10454506;28;20033;-53
2021/08/06 15:06:03;;;;;;;2.45;1.85;;;21.70;70.70;;;;;;10454226;28;20390;-53
2021/08/06 15:11:04;;;;;;;2.90;2.47;;;21.80;70.70;;;;;;10455841;28;20383;-53
2021/08/06 15:16:04;;;;;;;3.30;2.15;;;21.80;70.70;;;;;;10461816;28;20027;-52
2021/08/06 15:21:05;;;;;;;2.53;2.20;;;21.70;70.60;;;;;;10461942;28;20071;-54
2021/08/06 15:26:06;;;;;;;2.47;1.95;;;21.70;70.60;;;;;;10461481;28;20060;-53
2021/08/06 15:31:07;;;;;;;3.17;2.42;;;21.70;70.60;;;;;;10465120;28;20104;-53
2021/08/06 15:36:08;;;;;;;2.83;2.45;;;21.80;70.60;;;;;;10447936;28;20033;-54
2021/08/06 15:41:09;;;;;;;2.30;2.10;;;21.70;70.50;;;;;;10461025;28;20025;-54
2021/08/06 15:46:13;;;;;;;2.10;1.88;;;21.70;70.50;;;;;;10460919;28;20070;-53
2021/08/06 15:51:14;;;;;;;3.80;2.00;;;21.70;70.60;;;;;;10460348;28;20097;-53
2021/08/06 15:56:15;;;;;;;2.28;1.90;;;21.70;70.60;;;;;;10442561;28;20051;-53
2021/08/06 16:01:16;;;;;;;2.40;2.20;;;21.70;70.60;;;;;;10460102;28;20021;-53
2021/08/06 16:06:17;;;;;;;3.55;1.85;;;21.70;70.60;;;;;;10442410;28;20064;-51
2021/08/06 16:11:18;;;;;;;2.15;1.80;;;21.70;70.60;;;;;;10459895;28;20108;-53
2021/08/06 16:16:18;;;;;;;3.38;2.25;;;21.70;70.60;;;;;;10459303;28;20497;-54
2021/08/06 16:21:20;;;;;;;2.72;2.03;;;21.70;70.60;;;;;;10459568;28;20056;-54
2021/08/06 16:26:21;;;;;;;2.38;1.92;;;21.70;70.50;;;;;;10440335;28;20032;-53
2021/08/06 16:31:24;;;;;;;2.72;2.10;;;21.70;70.40;;;;;;10464746;28;20469;-54
2021/08/06 16:36:24;;;;;;;2.63;2.13;;;21.70;70.40;;;;;;10461313;28;20025;-53
2021/08/06 16:41:25;;;;;;;2.60;2.15;;;21.70;70.50;;;;;;10458239;28;20086;-54
2021/08/06 16:46:26;;;;;;;3.58;2.20;;;21.70;70.50;;;;;;10458257;28;20094;-54
2021/08/06 16:51:27;;;;;;;1.98;1.70;;;21.70;70.50;;;;;;10458319;28;20158;-52
2021/08/06 16:56:27;;;;;;;4.00;2.30;;;21.70;70.50;;;;;;10440236;28;20100;-53
2021/08/06 17:01:28;;;;;;;3.60;2.20;;;21.70;70.60;;;;;;10457839;28;20035;-54
2021/08/06 17:06:29;;;;;;;2.53;1.83;;;21.70;70.60;;;;;;10439806;28;20036;-53
2021/08/06 17:11:30;;;;;;;2.70;2.33;;;21.70;70.60;;;;;;10457480;28;20446;-53
2021/08/06 17:16:31;;;;;;;3.05;2.22;;;21.70;70.60;;;;;;10457173;28;20109;-53
2021/08/06 17:21:35;;;;;;;2.08;1.65;;;21.70;70.60;;;;;;10439155;28;20045;-54
2021/08/06 17:26:36;;;;;;;3.00;1.70;;;21.70;70.60;;;;;;10439017;28;20107;-53
2021/08/06 17:31:37;;;;;;;2.03;1.83;;;21.70;70.50;;;;;;10464687;28;20119;-53
2021/08/06 17:36:40;;;;;;;2.70;2.10;;;21.70;70.40;;;;;;10456269;28;20071;-52
2021/08/06 17:41:41;;;;;;;2.17;1.83;;;21.70;70.40;;;;;;10456411;28;20029;-51
2021/08/06 17:46:42;;;;;;;2.30;2.00;;;21.70;70.40;;;;;;10455937;28;20041;-53
2021/08/06 17:51:43;;;;;;;2.40;1.80;;;21.70;70.40;;;;;;10455971;28;20055;-52
2021/08/06 17:56:43;;;;;;;3.35;2.13;;;21.70;70.40;;;;;;10455517;28;20128;-54
2021/08/06 18:01:44;;;;;;;2.95;1.90;;;21.70;70.40;;;;;;10437951;28;20473;-51
2021/08/06 18:06:45;;;;;;;2.33;1.70;;;21.70;70.30;;;;;;10455614;28;20464;-54
2021/08/06 18:11:45;;;;;;;2.03;1.50;;;21.70;70.30;;;;;;10437534;28;20116;-51
2021/08/06 18:16:46;;;;;;;1.60;1.50;;;21.70;70.30;;;;;;10429132;28;20037;-54
2021/08/06 18:21:47;;;;;;;2.28;2.05;;;21.70;70.30;;;;;;10454751;28;20504;-53
2021/08/06 18:26:48;;;;;;;2.63;2.00;;;21.70;70.30;;;;;;10424671;28;20108;-52
2021/08/06 18:31:51;;;;;;;2.80;1.90;;;21.70;70.30;;;;;;10433446;28;20047;-52
2021/08/06 18:36:52;;;;;;;6.00;2.22;;;21.70;70.30;;;;;;10451513;28;20116;-54
2021/08/06 18:41:53;;;;;;;2.88;2.15;;;21.70;70.60;;;;;;10454073;28;20036;-54
2021/08/06 18:46:53;;;;;;;3.95;2.13;;;21.70;70.50;;;;;;10457222;28;20067;-54
2021/08/06 18:51:54;;;;;;;4.53;2.50;;;21.70;70.40;;;;;;10445586;28;20061;-55
2021/08/06 18:56:55;;;;;;;5.57;2.10;;;21.70;70.60;;;;;;10461295;28;20478;-55
2021/08/06 19:01:55;;;;;;;2.50;1.67;;;21.70;70.40;;;;;;10442775;28;20114;-54
2021/08/06 19:06:56;;;;;;;4.85;1.83;;;21.70;70.30;;;;;;10460367;28;20109;-55
2021/08/06 19:11:57;;;;;;;3.50;2.47;;;21.70;70.50;;;;;;10451880;28;20035;-55
2021/08/06 19:16:57;;;;;;;3.30;2.10;;;21.70;70.60;;;;;;10449753;28;20116;-54
2021/08/06 19:21:58;;;;;;;2.67;1.85;;;21.70;70.60;;;;;;10450668;28;20350;-55
2021/08/06 19:26:59;;;;;;;4.40;2.13;;;21.70;70.60;;;;;;10457232;28;20035;-55
2021/08/06 19:32:00;;;;;;;3.25;1.88;;;21.70;70.60;;;;;;10447895;28;20064;-55
2021/08/06 19:37:04;;;;;;;5.45;2.15;;;21.80;70.70;;;;;;10458960;28;20040;-54
2021/08/06 19:42:06;;;;;;;4.75;1.75;;;21.80;70.70;;;;;;10451731;28;20020;-55
2021/08/06 19:47:07;;;;;;;3.05;1.73;;;21.70;70.60;;;;;;10460858;28;20143;-54
2021/08/06 19:52:08;;;;;;;3.78;2.30;;;21.70;70.50;;;;;;10459321;28;20044;-55
2021/08/06 19:57:09;;;;;;;2.80;1.75;;;21.70;70.30;;;;;;10447348;28;20157;-55
2021/08/06 20:02:12;;;;;;;3.70;2.20;;;21.70;70.30;;;;;;10459814;28;20037;-55
2021/08/06 20:07:13;;;;;;;3.25;1.98;;;21.70;70.20;;;;;;10459098;28;20033;-54
2021/08/06 20:12:14;;;;;;;3.03;1.80;;;21.70;70.20;;;;;;10457687;28;20040;-54
2021/08/06 20:17:15;;;;;;;5.47;2.00;;;21.70;70.20;;;;;;10458319;28;20064;-55
2021/08/06 20:22:17;;;;;;;4.97;2.15;;;21.70;70.80;;;;;;10458633;28;20032;-55
2021/08/06 20:27:18;;;;;;;2.88;1.88;;;21.70;70.20;;;;;;10445341;28;20029;-54
2021/08/06 20:32:18;;;;;;;4.28;2.35;;;21.70;70.20;;;;;;10447752;28;20473;-55
2021/08/06 20:37:21;;;;;;;4.28;2.22;;;21.70;70.20;;;;;;10458273;28;20485;-53
2021/08/06 20:42:21;;;;;;;4.32;2.10;;;21.60;70.20;;;;;;10458230;28;20481;-55
2021/08/06 20:47:22;;;;;;;2.70;2.00;;;21.60;70.20;;;;;;10439715;28;20064;-55
2021/08/06 20:52:23;;;;;;;4.90;2.25;;;21.70;70.10;;;;;;10439472;28;20021;-55
2021/08/06 20:57:24;;;;;;;3.58;2.35;;;21.70;70.00;;;;;;10456911;28;20049;-55
2021/08/06 21:02:25;;;;;;;3.17;2.05;;;21.60;70.00;;;;;;10456838;28;20170;-54
2021/08/06 21:07:26;;;;;;;2.30;1.98;;;21.60;69.90;;;;;;10456409;28;20032;-54
2021/08/06 21:12:26;;;;;;;4.10;2.25;;;21.60;70.10;;;;;;10455560;28;20104;-55
2021/08/06 21:17:27;;;;;;;4.70;2.20;;;21.60;70.00;;;;;;10456381;28;20504;-55
2021/08/06 21:22:28;;;;;;;3.75;2.20;;;21.60;69.80;;;;;;10456095;28;20108;-54
2021/08/06 21:27:29;;;;;;;3.70;2.17;;;21.60;69.70;;;;;;10432519;28;20480;-55
2021/08/06 21:32:29;;;;;;;2.53;1.75;;;21.60;69.70;;;;;;10463261;28;20047;-55
2021/08/06 21:37:30;;;;;;;4.30;2.60;;;21.60;69.80;;;;;;10455705;28;20056;-55
2021/08/06 21:42:31;;;;;;;4.13;2.15;;;21.60;69.60;;;;;;10419270;28;20123;-55
2021/08/06 21:47:31;;;;;;;4.38;2.60;;;21.60;69.60;;;;;;10455287;28;20041;-55
2021/08/06 21:52:33;;;;;;;2.75;2.10;;;21.60;69.60;;;;;;10454961;28;20047;-55
2021/08/06 21:57:33;;;;;;;2.20;1.98;;;21.60;69.90;;;;;;10455008;28;20067;-55
2021/08/06 22:02:35;;;;;;;3.00;2.08;;;21.60;69.80;;;;;;10436887;28;20032;-55
2021/08/06 22:07:36;;;;;;;5.07;2.50;;;21.60;69.80;;;;;;10454690;28;20025;-55
2021/08/06 22:12:37;;;;;;;2.92;2.28;;;21.60;69.80;;;;;;10436835;28;20047;-55
2021/08/06 22:17:39;;;;;;;3.35;2.33;;;21.60;69.90;;;;;;10454557;28;20223;-55
2021/08/06 22:22:40;;;;;;;3.17;2.10;;;21.60;69.90;;;;;;10453503;28;20031;-54
2021/08/06 22:27:40;;;;;;;2.95;2.20;;;21.60;70.10;;;;;;10454306;28;20488;-55
2021/08/06 22:32:41;;;;;;;3.78;2.13;;;21.60;70.00;;;;;;10458064;28;20116;-55
2021/08/06 22:37:44;;;;;;;2.30;1.88;;;21.60;69.90;;;;;;10454682;28;20037;-55
2021/08/06 22:42:46;;;;;;;4.63;2.35;;;21.60;69.80;;;;;;10436423;28;20543;-55
2021/08/06 22:47:47;;;;;;;3.53;2.42;;;21.60;69.80;;;;;;10454016;28;20512;-55
2021/08/06 22:52:47;;;;;;;3.22;2.30;;;21.60;69.80;;;;;;10453545;28;20113;-55
2021/08/06 22:57:49;;;;;;;2.50;1.95;;;21.50;69.70;;;;;;10453674;28;20493;-54
2021/08/06 23:02:50;;;;;;;2.22;1.70;;;21.60;69.80;;;;;;10453620;28;20079;-54
2021/08/06 23:07:50;;;;;;;3.80;2.22;;;21.50;69.80;;;;;;10453652;28;20052;-55
2021/08/06 23:12:51;;;;;;;3.25;2.17;;;21.50;69.80;;;;;;10453091;28;20075;-55
2021/08/06 23:17:52;;;;;;;2.13;1.80;;;21.50;69.60;;;;;;10453114;28;20499;-55
2021/08/06 23:22:53;;;;;;;3.10;1.90;;;21.50;69.60;;;;;;10453536;28;20155;-56
2021/08/06 23:27:53;;;;;;;3.58;2.10;;;21.50;69.60;;;;;;10422369;28;20039;-55
2021/08/06 23:32:54;;;;;;;2.72;1.85;;;21.50;69.50;;;;;;10464440;28;20033;-55
2021/08/06 23:37:55;;;;;;;3.85;1.90;;;21.50;69.30;;;;;;10460320;28;20466;-54
2021/08/06 23:42:55;;;;;;;3.53;1.80;;;21.50;69.10;;;;;;10460259;28;20150;-55
2021/08/06 23:47:56;;;;;;;3.58;2.55;;;21.50;68.90;;;;;;10459698;28;20131;-55
2021/08/06 23:52:57;;;;;;;4.55;2.17;;;21.50;68.90;;;;;;10459586;28;20036;-55
2021/08/06 23:57:58;;;;;;;5.38;2.90;;;21.50;69.00;;;;;;10459477;28;20055;-55
